Time;durP1;ratioP1;P1;durP2;ratioP2;P2;SDS_P1;SDS_P2;PMS_P1;PMS_P2;Temp;Humidity;BMP_temperature;BMP_pressure;BME280_temperature;BME280_humidity;BME280_pressure;Samples;Min_cycle;Max_cycle;Signal;HPM_P1;HPM_P2
2022/01/11 00:02:58;;;;;;;5.93;2.28;;;;;;;1.32;100.00;94132.34;10346456;28;20014;-70
2022/01/11 00:07:59;;;;;;;3.97;2.20;;;;;;;1.34;100.00;94130.28;10346718;28;20021;-70
2022/01/11 00:13:00;;;;;;;4.05;2.63;;;;;;;1.40;100.00;94149.75;10367413;28;20029;-70
2022/01/11 00:18:00;;;;;;;3.20;2.08;;;;;;;1.36;100.00;94145.94;10347069;28;20108;-70
2022/01/11 00:28:01;;;;;;;3.47;2.40;;;;;;;1.43;100.00;94151.13;10363875;28;20033;-70
2022/01/11 00:33:07;;;;;;;4.40;2.47;;;;;;;1.44;100.00;94153.53;10345075;28;20053;-69
2022/01/11 00:38:09;;;;;;;4.78;2.75;;;;;;;1.39;100.00;94157.91;10363361;28;20554;-71
2022/01/11 00:43:10;;;;;;;3.85;2.85;;;;;;;1.41;100.00;94167.25;10344786;28;20044;-69
2022/01/11 00:48:10;;;;;;;2.72;2.17;;;;;;;1.33;100.00;94171.03;10362850;28;20033;-73
2022/01/11 00:53:11;;;;;;;4.53;2.50;;;;;;;1.45;100.00;94175.53;10346109;28;20712;-74
2022/01/11 00:58:11;;;;;;;2.15;1.80;;;;;;;1.47;100.00;94179.56;10345021;28;20048;-70
2022/01/11 01:03:12;;;;;;;1.98;1.63;;;;;;;1.50;100.00;94187.03;10328756;28;20034;-70
2022/01/11 01:08:12;;;;;;;3.20;2.00;;;;;;;1.51;100.00;94188.66;10362225;28;20022;-71
2022/01/11 01:13:22;;;;;;;2.70;1.70;;;;;;;1.54;100.00;94192.69;10327834;28;20033;-71
2022/01/11 01:18:25;;;;;;;3.75;1.38;;;;;;;1.53;100.00;94191.06;10344372;28;20480;-72
2022/01/11 01:23:27;;;;;;;2.85;1.40;;;;;;;1.50;100.00;94200.28;10344710;28;20030;-71
2022/01/11 01:28:27;;;;;;;2.58;1.42;;;;;;;1.48;100.00;94207.66;10333106;28;20484;-76
2022/01/11 01:33:30;;;;;;;3.00;1.27;;;;;;;1.49;100.00;94211.94;10322776;28;20051;-72
2022/01/11 01:38:31;;;;;;;2.25;1.15;;;;;;;1.46;100.00;94215.00;10309026;28;20025;-74
2022/01/11 01:43:32;;;;;;;2.33;0.73;;;;;;;1.32;100.00;94210.97;10359748;28;20488;-72
2022/01/11 01:48:32;;;;;;;4.38;1.05;;;;;;;1.28;100.00;94209.81;10339421;28;20033;-71
2022/01/11 01:53:38;;;;;;;0.63;0.63;;;;;;;1.29;100.00;94211.44;10340144;28;20014;-70
2022/01/11 01:58:39;;;;;;;2.60;0.77;;;;;;;1.24;100.00;94222.69;10342219;28;20028;-71
2022/01/11 02:03:42;;;;;;;1.35;0.45;;;;;;;1.22;100.00;94218.69;10342526;28;20034;-76
2022/01/11 02:08:45;;;;;;;0.63;0.60;;;;;;;1.24;100.00;94221.88;10342896;28;20080;-72
2022/01/11 02:13:46;;;;;;;0.68;0.68;;;;;;;1.17;100.00;94228.09;10342707;28;20169;-70
2022/01/11 02:18:47;;;;;;;1.88;1.13;;;;;;;1.20;100.00;94234.78;10342290;28;20029;-72
2022/01/11 02:23:50;;;;;;;0.77;0.75;;;;;;;1.14;100.00;94231.19;10342196;28;20037;-75
2022/01/11 02:28:51;;;;;;;4.85;1.08;;;;;;;1.23;100.00;94242.28;10342611;28;20480;-73
2022/01/11 02:33:56;;;;;;;0.90;0.85;;;;;;;1.28;100.00;94245.03;10341675;28;20046;-72
2022/01/11 02:38:58;;;;;;;2.47;1.10;;;;;;;1.18;100.00;94253.53;10342236;28;20064;-74
2022/01/11 02:43:59;;;;;;;1.58;1.10;;;;;;;1.20;100.00;94250.66;10341651;28;20507;-71
2022/01/11 02:49:00;;;;;;;2.00;0.98;;;;;;;1.19;100.00;94252.50;10341950;28;20026;-75
2022/01/11 02:54:01;;;;;;;1.88;1.10;;;;;;;1.15;100.00;94261.91;10341843;28;20022;-74
2022/01/11 02:59:02;;;;;;;2.65;1.60;;;;;;;1.03;100.00;94261.06;10358810;28;20037;-72
2022/01/11 03:04:03;;;;;;;1.17;1.05;;;;;;;0.83;100.00;94261.34;10358815;28;20076;-76
2022/01/11 03:09:04;;;;;;;2.72;1.13;;;;;;;0.96;100.00;94270.94;10342760;28;20125;-72
2022/01/11 03:14:04;;;;;;;2.03;1.38;;;;;;;0.94;100.00;94275.66;10345138;28;20022;-71
2022/01/11 03:19:05;;;;;;;1.95;1.23;;;;;;;0.83;100.00;94278.03;10345489;28;20112;-77
2022/01/11 03:24:05;;;;;;;2.58;1.83;;;;;;;0.75;100.00;94278.31;10325012;28;20463;-71
2022/01/11 03:29:06;;;;;;;1.20;1.02;;;;;;;0.61;100.00;94274.25;10322088;28;20018;-71
2022/01/11 03:34:06;;;;;;;1.92;1.30;;;;;;;0.66;100.00;94277.84;10309265;28;20026;-72
2022/01/11 03:39:07;;;;;;;0.75;0.75;;;;;;;0.66;100.00;94279.69;10324939;28;20531;-75
2022/01/11 03:44:07;;;;;;;0.63;0.63;;;;;;;0.06;100.00;94278.50;10307372;28;20124;-72
2022/01/11 03:49:08;;;;;;;1.02;0.90;;;;;;;-0.18;100.00;94288.09;10325272;28;20030;-71
2022/01/11 03:54:13;;;;;;;0.70;0.70;;;;;;;-0.24;100.00;94300.34;10307830;28;20030;-73
2022/01/11 03:59:15;;;;;;;2.85;0.80;;;;;;;-0.35;100.00;94308.94;10323711;28;20121;-72
2022/01/11 04:04:15;;;;;;;1.15;0.95;;;;;;;-0.40;100.00;94304.31;10305783;28;20051;-74
2022/01/11 04:09:16;;;;;;;1.33;1.23;;;;;;;-0.42;100.00;94311.66;10307001;28;20034;-70
2022/01/11 04:14:16;;;;;;;1.35;1.25;;;;;;;-0.47;100.00;94322.03;10323886;28;20031;-74
2022/01/11 04:19:17;;;;;;;1.35;1.05;;;;;;;-0.36;100.00;94325.81;10324043;28;20105;-78
2022/01/11 04:24:18;;;;;;;2.20;1.60;;;;;;;-0.14;100.00;94339.47;10305711;28;20089;-71
2022/01/11 04:29:18;;;;;;;2.80;1.77;;;;;;;-0.02;100.00;94342.19;10290113;28;20120;-78
2022/01/11 04:34:19;;;;;;;3.33;1.77;;;;;;;0.04;100.00;94349.22;10316029;28;20028;-74
2022/01/11 04:39:19;;;;;;;3.03;1.50;;;;;;;0.07;100.00;94350.66;10346395;28;20034;-72
2022/01/11 04:44:20;;;;;;;1.30;1.20;;;;;;;0.03;100.00;94357.38;10455737;22;20049;-74
2022/01/11 04:49:20;;;;;;;1.65;1.33;;;;;;;0.13;100.00;94361.16;10385999;28;20095;-70
2022/01/11 04:54:21;;;;;;;4.03;1.33;;;;;;;-0.01;100.00;94371.03;10385782;28;20036;-73
2022/01/11 04:59:22;;;;;;;7.90;1.50;;;;;;;-0.07;100.00;94373.72;10384224;28;20079;-69
2022/01/11 05:04:24;;;;;;;3.33;1.45;;;;;;;-0.23;100.00;94375.88;10368489;28;20119;-73
2022/01/11 05:09:24;;;;;;;1.73;1.13;;;;;;;-0.60;100.00;94377.53;10361221;28;20032;-73
2022/01/11 05:14:25;;;;;;;0.95;0.70;;;;;;;-0.75;100.00;94383.13;10354868;28;20065;-74
2022/01/11 05:19:25;;;;;;;1.83;1.13;;;;;;;-0.76;100.00;94392.84;10374278;28;20032;-73
2022/01/11 05:24:25;;;;;;;6.47;1.52;;;;;;;-0.85;100.00;94399.41;10394974;28;20074;-72
2022/01/11 05:29:26;;;;;;;1.35;1.20;;;;;;;-0.97;100.00;94401.09;10343031;28;20053;-72
2022/01/11 05:34:27;;;;;;;2.88;2.67;;;;;;;-0.73;100.00;94404.81;10382627;28;20126;-72
2022/01/11 05:39:28;;;;;;;2.33;1.17;;;;;;;-0.94;100.00;94405.94;10383117;28;20029;-73
2022/01/11 05:44:28;;;;;;;1.48;1.25;;;;;;;-0.95;100.00;94415.69;10383098;28;20041;-73
2022/01/11 05:49:29;;;;;;;3.72;2.45;;;;;;;-1.09;100.00;94411.47;10383520;28;20128;-78
2022/01/11 05:54:29;;;;;;;5.45;1.77;;;;;;;-0.90;100.00;94426.41;10383498;28;20127;-74
2022/01/11 05:59:30;;;;;;;1.20;1.10;;;;;;;-0.98;100.00;94424.00;10382908;28;20051;-74
2022/01/11 06:04:31;;;;;;;2.22;1.27;;;;;;;-1.09;100.00;94428.13;10381019;28;20087;-73
2022/01/11 06:09:31;;;;;;;2.50;1.13;;;;;;;-1.06;100.00;94445.31;10382842;28;20091;-73
2022/01/11 06:14:32;;;;;;;4.53;1.48;;;;;;;-1.04;100.00;94446.75;10383109;28;20048;-78
2022/01/11 06:19:34;;;;;;;5.25;1.58;;;;;;;-1.10;100.00;94463.41;10348581;28;20499;-74
2022/01/11 06:24:34;;;;;;;2.65;2.47;;;;;;;-1.12;100.00;94467.25;10357778;28;20099;-73
2022/01/11 06:29:35;;;;;;;2.10;1.80;;;;;;;-1.10;100.00;94473.97;10359634;28;20337;-75
2022/01/11 06:34:35;;;;;;;3.75;2.00;;;;;;;-1.13;100.00;94476.19;10357290;28;20230;-75
2022/01/11 06:39:36;;;;;;;3.15;1.77;;;;;;;-1.06;100.00;94475.16;10341971;28;20044;-73
2022/01/11 06:44:38;;;;;;;4.63;2.03;;;;;;;-1.02;100.00;94493.22;10362387;28;20579;-72
2022/01/11 06:49:40;;;;;;;4.30;2.13;;;;;;;-1.02;100.00;94482.66;10365854;28;20061;-76
2022/01/11 06:54:41;;;;;;;2.35;2.25;;;;;;;-1.00;100.00;94494.63;10365841;28;20097;-78
2022/01/11 06:59:43;;;;;;;2.28;2.13;;;;;;;-0.97;100.00;94496.84;10348862;28;20465;-76
2022/01/11 07:04:44;;;;;;;9.75;4.15;;;;;;;-0.92;100.00;94509.41;10364821;28;20034;-78
2022/01/11 07:09:44;;;;;;;9.60;3.17;;;;;;;-0.81;100.00;94513.22;10365192;28;20083;-73
2022/01/11 07:14:45;;;;;;;6.38;3.17;;;;;;;-0.82;100.00;94515.06;10348272;28;20076;-71
2022/01/11 07:19:45;;;;;;;3.92;2.33;;;;;;;-0.78;100.00;94516.28;10365807;28;20496;-77
2022/01/11 07:24:46;;;;;;;3.80;2.22;;;;;;;-0.67;100.00;94535.94;10348251;28;20037;-78
2022/01/11 07:29:46;;;;;;;8.25;3.58;;;;;;;-0.40;100.00;94543.75;10364029;28;20033;-74
2022/01/11 07:34:47;;;;;;;2.10;1.77;;;;;;;-0.35;100.00;94536.00;10347658;28;20040;-72
2022/01/11 07:39:47;;;;;;;2.00;1.77;;;;;;;-0.35;100.00;94547.41;10380279;28;20163;-72
2022/01/11 07:44:51;;;;;;;5.13;2.60;;;;;;;-0.27;100.00;94548.97;10387812;28;20045;-73
2022/01/11 07:49:52;;;;;;;6.72;3.17;;;;;;;-0.24;100.00;94550.38;10387723;28;20029;-73
2022/01/11 07:54:52;;;;;;;7.53;3.45;;;;;;;-0.12;100.00;94566.41;10354635;28;20025;-73
2022/01/11 07:59:54;;;;;;;4.60;2.85;;;;;;;-0.29;100.00;94573.97;10387985;28;20025;-81
2022/01/11 08:04:54;;;;;;;9.68;3.72;;;;;;;-0.49;100.00;94576.69;10386981;28;20502;-74
2022/01/11 08:09:55;;;;;;;5.75;3.80;;;;;;;-0.22;100.00;94577.41;10390412;28;20021;-76
2022/01/11 08:14:56;;;;;;;3.30;2.25;;;;;;;-0.17;100.00;94588.13;10389178;28;20099;-78
2022/01/11 08:19:56;;;;;;;2.78;1.90;;;;;;;-0.11;100.00;94586.47;10387242;28;20596;-73
2022/01/11 08:24:57;;;;;;;3.40;2.13;;;;;;;0.05;100.00;94593.13;10388852;28;20049;-77
2022/01/11 08:29:57;;;;;;;2.72;2.50;;;;;;;0.19;100.00;94605.25;10387809;28;20495;-72
2022/01/11 08:34:57;;;;;;;6.82;4.22;;;;;;;-0.21;100.00;94615.97;10404093;28;20021;-75
2022/01/11 08:39:58;;;;;;;6.68;3.90;;;;;;;-0.51;100.00;94613.84;10354400;28;20100;-78
2022/01/11 08:45:00;;;;;;;5.05;3.50;;;;;;;-0.59;100.00;94620.16;10378283;28;20042;-75
2022/01/11 08:50:04;;;;;;;5.60;3.50;;;;;;;-0.66;100.00;94635.19;10361873;28;20033;-73
2022/01/11 08:55:07;;;;;;;5.82;2.70;;;;;;;-0.67;100.00;94641.50;10346917;28;20396;-77
2022/01/11 09:00:16;;;;;;;9.48;2.97;;;;;;;-0.40;100.00;94650.16;10330924;28;20028;-78
2022/01/11 09:05:19;;;;;;;8.93;3.42;;;;;;;-0.30;100.00;94659.50;10364608;28;20088;-80
2022/01/11 09:10:20;;;;;;;6.03;3.00;;;;;;;-0.26;100.00;94655.44;10345110;28;20144;-72
2022/01/11 09:15:20;;;;;;;3.78;2.20;;;;;;;-0.19;100.00;94657.03;10344646;28;20108;-74
2022/01/11 09:20:21;;;;;;;4.68;2.08;;;;;;;-0.15;100.00;94656.59;10360626;28;20032;-76
2022/01/11 09:25:22;;;;;;;7.00;3.58;;;;;;;-0.20;100.00;94676.53;10361908;28;20145;-75
2022/01/11 09:30:24;;;;;;;8.98;3.08;;;;;;;-0.19;100.00;94669.44;10360382;28;20025;-80
2022/01/11 09:35:25;;;;;;;9.32;3.30;;;;;;;-0.14;100.00;94674.06;10361131;28;20507;-78
2022/01/11 09:40:26;;;;;;;9.48;4.25;;;;;;;-0.05;100.00;94673.63;10343621;28;20311;-78
2022/01/11 09:45:27;;;;;;;6.72;3.55;;;;;;;-0.01;100.00;94674.84;10359510;28;20057;-78
2022/01/11 09:50:27;;;;;;;8.85;3.80;;;;;;;-0.01;100.00;94669.56;10344969;28;20622;-82
2022/01/11 09:55:28;;;;;;;4.00;3.38;;;;;;;-0.13;100.00;94678.34;10344059;28;20030;-78
2022/01/11 10:00:29;;;;;;;4.97;2.50;;;;;;;-0.19;100.00;94682.63;10342662;28;20057;-74
2022/01/11 10:05:29;;;;;;;6.05;3.40;;;;;;;-0.29;100.00;94685.69;10342720;28;20029;-74
2022/01/11 10:10:30;;;;;;;6.78;3.20;;;;;;;-0.20;100.00;94675.72;10342401;28;20411;-78
2022/01/11 10:15:36;;;;;;;4.43;2.45;;;;;;;-0.23;100.00;94684.88;10342770;28;20179;-73
2022/01/11 10:20:36;;;;;;;3.95;2.63;;;;;;;-0.33;100.00;94681.03;10369300;28;20042;-74
2022/01/11 10:25:46;;;;;;;5.57;2.92;;;;;;;-0.33;100.00;94691.59;10371225;28;20029;-74
2022/01/11 10:30:46;;;;;;;4.20;3.00;;;;;;;-0.28;100.00;94694.44;10371529;28;20044;-73
2022/01/11 10:35:48;;;;;;;7.18;3.65;;;;;;;-0.34;100.00;94703.97;10371711;28;20014;-76
2022/01/11 10:40:49;;;;;;;6.20;2.90;;;;;;;-0.37;100.00;94694.63;10381700;28;20025;-77
2022/01/11 10:45:53;;;;;;;5.40;3.53;;;;;;;-0.20;100.00;94702.94;10395295;28;20053;-73
2022/01/11 10:50:58;;;;;;;2.63;2.42;;;;;;;-0.62;100.00;94696.31;10395201;28;20467;-73
2022/01/11 10:56:01;;;;;;;4.95;2.75;;;;;;;-0.48;100.00;94694.47;10379396;28;20025;-73
2022/01/11 11:01:04;;;;;;;5.75;2.85;;;;;;;-0.44;100.00;94696.47;10394757;28;20025;-73
2022/01/11 11:06:10;;;;;;;6.15;3.50;;;;;;;-0.36;100.00;94704.19;10412811;28;20555;-73
2022/01/11 11:11:20;;;;;;;5.85;3.15;;;;;;;-0.37;100.00;94699.91;10395232;28;20140;-72
2022/01/11 11:16:25;;;;;;;6.63;4.07;;;;;;;-0.28;100.00;94695.25;10379067;28;20025;-73
2022/01/11 11:21:35;;;;;;;4.30;3.03;;;;;;;-0.26;100.00;94695.84;10379846;28;20032;-73
2022/01/11 11:26:49;;;;;;;2.80;2.38;;;;;;;-0.19;100.00;94699.28;10394536;28;20025;-78
2022/01/11 11:31:50;;;;;;;3.33;2.53;;;;;;;-0.28;100.00;94708.47;10411400;28;20025;-76
2022/01/11 11:36:51;;;;;;;4.28;3.72;;;;;;;-0.30;100.00;94705.19;10390010;28;20025;-74
2022/01/11 11:41:56;;;;;;;9.88;5.78;;;;;;;-0.30;100.00;94705.19;10405905;28;20103;-73
2022/01/11 11:47:00;;;;;;;6.00;4.50;;;;;;;-0.49;100.00;94716.59;10392524;28;20562;-77
2022/01/11 11:52:16;;;;;;;9.63;5.18;;;;;;;-0.57;100.00;94729.00;10392904;28;20052;-74
2022/01/11 11:57:17;;;;;;;6.55;3.65;;;;;;;-0.63;100.00;94729.78;10405450;28;20072;-74
2022/01/11 12:02:38;;;;;;;4.95;4.40;;;;;;;-0.59;100.00;94730.22;10387377;28;20446;-77
2022/01/11 12:07:45;;;;;;;6.78;5.15;;;;;;;-0.58;100.00;94743.19;10387636;28;20159;-76
2022/01/11 12:12:53;;;;;;;6.35;4.03;;;;;;;-0.44;100.00;94748.47;10404402;28;20403;-74
2022/01/11 12:18:09;;;;;;;6.43;4.55;;;;;;;-0.60;100.00;94745.25;10387128;28;20059;-78
2022/01/11 12:23:13;;;;;;;6.45;4.63;;;;;;;-0.61;100.00;94751.53;10386434;28;20040;-71
2022/01/11 12:28:19;;;;;;;5.75;4.00;;;;;;;-0.58;100.00;94747.69;10386131;28;20033;-73
2022/01/11 12:33:22;;;;;;;10.63;5.38;;;;;;;-0.59;100.00;94740.75;10387962;28;20101;-77
2022/01/11 12:38:24;;;;;;;11.48;4.78;;;;;;;-0.62;100.00;94749.91;10385762;28;20087;-78
2022/01/11 12:43:56;;;;;;;8.65;4.32;;;;;;;-0.76;100.00;94750.91;10403474;28;20092;-75
2022/01/11 12:49:00;;;;;;;12.50;4.70;;;;;;;-0.80;100.00;94755.78;10403045;28;20053;-79
2022/01/11 12:54:33;;;;;;;7.63;4.72;;;;;;;-0.62;100.00;94763.09;10385466;28;20030;-76
2022/01/11 12:59:36;;;;;;;9.82;4.97;;;;;;;-0.58;100.00;94761.66;10370795;28;20044;-78
2022/01/11 13:04:39;;;;;;;5.55;3.80;;;;;;;-0.56;100.00;94778.13;10361915;28;20033;-76
2022/01/11 13:09:40;;;;;;;10.02;5.35;;;;;;;-0.43;100.00;94774.69;10361043;28;20061;-74
2022/01/11 13:14:42;;;;;;;6.22;3.92;;;;;;;-0.50;100.00;94767.75;10382853;28;20021;-72
2022/01/11 13:19:42;;;;;;;6.18;4.28;;;;;;;-0.52;100.00;94765.31;10384117;28;20032;-77
2022/01/11 13:24:47;;;;;;;10.45;5.20;;;;;;;-0.47;100.00;94778.75;10401494;28;20036;-73
2022/01/11 13:29:47;;;;;;;6.55;3.80;;;;;;;-0.58;100.00;94774.88;10367884;28;20083;-74
2022/01/11 13:34:48;;;;;;;8.68;4.97;;;;;;;-0.48;100.00;94774.47;10384504;28;20116;-78
2022/01/11 13:39:54;;;;;;;7.68;4.32;;;;;;;-0.50;100.00;94787.06;10382797;28;20041;-73
2022/01/11 13:44:54;;;;;;;11.07;5.30;;;;;;;-0.64;100.00;94788.88;10400575;28;20103;-78
2022/01/11 13:49:57;;;;;;;15.55;8.13;;;;;;;-0.67;100.00;94791.09;10400615;28;20025;-74
2022/01/11 13:54:58;;;;;;;10.55;6.70;;;;;;;-0.63;100.00;94792.34;10383009;28;20056;-81
2022/01/11 14:00:09;;;;;;;9.68;6.22;;;;;;;-0.58;100.00;94798.63;10383147;28;20033;-77
2022/01/11 14:05:14;;;;;;;12.02;5.82;;;;;;;-0.56;100.00;94814.25;10376584;28;20111;-78
2022/01/11 14:10:15;;;;;;;9.25;5.80;;;;;;;-0.51;100.00;94806.56;10341715;28;20032;-74
2022/01/11 14:15:19;;;;;;;6.28;4.63;;;;;;;-0.53;100.00;94817.31;10358727;28;20026;-82
2022/01/11 14:20:31;;;;;;;8.85;4.97;;;;;;;-0.74;100.00;94826.22;10341903;28;20522;-79
2022/01/11 14:25:35;;;;;;;11.07;5.32;;;;;;;-0.86;100.00;94844.47;10358049;28;20067;-73
2022/01/11 14:30:40;;;;;;;8.38;4.75;;;;;;;-0.72;100.00;94833.94;10359806;28;20108;-74
2022/01/11 14:35:40;;;;;;;6.95;4.82;;;;;;;-0.81;100.00;94845.69;10341595;28;20033;-78
2022/01/11 14:40:44;;;;;;;12.85;5.65;;;;;;;-0.90;100.00;94853.78;10341355;28;20603;-73
2022/01/11 14:45:51;;;;;;;10.20;4.25;;;;;;;-0.98;100.00;94863.69;10357319;28;20119;-78
2022/01/11 14:50:51;;;;;;;9.80;4.78;;;;;;;-1.16;100.00;94870.31;10358596;28;20033;-79
2022/01/11 14:55:55;;;;;;;8.65;5.55;;;;;;;-1.16;100.00;94872.16;10357316;28;20411;-74
2022/01/11 15:00:58;;;;;;;9.35;5.07;;;;;;;-1.27;100.00;94878.78;10358697;28;20032;-80
2022/01/11 15:06:20;;;;;;;15.52;7.55;;;;;;;-1.50;100.00;94882.53;10345949;28;20029;-77
2022/01/11 15:11:26;;;;;;;13.82;5.82;;;;;;;-1.51;100.00;94886.16;10364849;28;20507;-78
2022/01/11 15:16:28;;;;;;;14.10;8.23;;;;;;;-1.27;100.00;94890.16;10364693;28;20105;-77
2022/01/11 15:21:29;;;;;;;11.70;5.88;;;;;;;-1.43;100.00;94899.19;10348078;28;20097;-76
2022/01/11 15:26:32;;;;;;;14.80;7.15;;;;;;;-1.42;100.00;94902.66;10347631;28;20264;-77
2022/01/11 15:31:33;;;;;;;17.00;7.03;;;;;;;-1.58;100.00;94906.41;10363420;28;20033;-77
2022/01/11 15:36:34;;;;;;;14.18;7.03;;;;;;;-1.47;100.00;94905.06;10364238;28;20034;-76
2022/01/11 15:41:35;;;;;;;10.52;6.65;;;;;;;-1.44;100.00;94917.84;10346610;28;20566;-72
2022/01/11 15:46:39;;;;;;;10.68;6.38;;;;;;;-1.89;100.00;94911.06;10298611;28;20113;-73
2022/01/11 15:51:40;;;;;;;10.10;5.90;;;;;;;-1.95;100.00;94924.19;10266285;28;20030;-77
2022/01/11 15:56:41;;;;;;;11.85;6.15;;;;;;;-2.14;100.00;94933.56;10282634;28;20030;-76
2022/01/11 16:01:42;;;;;;;16.52;6.78;;;;;;;-2.04;100.00;94946.41;10298919;28;20023;-74
2022/01/11 16:06:42;;;;;;;9.52;6.47;;;;;;;-1.97;100.00;94955.16;10285396;28;20026;-78
2022/01/11 16:11:43;;;;;;;10.65;5.97;;;;;;;-1.80;100.00;94966.25;10321808;28;20823;-77
2022/01/11 16:16:43;;;;;;;12.65;6.60;;;;;;;-1.82;100.00;94973.53;10315020;28;20030;-75
2022/01/11 16:21:44;;;;;;;15.80;6.63;;;;;;;-1.85;100.00;94985.25;10302927;28;20025;-76
2022/01/11 16:26:46;;;;;;;11.50;6.47;;;;;;;-2.17;100.00;94982.13;10320812;28;20416;-77
2022/01/11 16:31:47;;;;;;;13.82;6.38;;;;;;;-2.17;100.00;94983.97;10280946;28;20045;-74
2022/01/11 16:36:48;;;;;;;11.93;7.28;;;;;;;-2.14;100.00;95004.63;10282637;28;20034;-77
2022/01/11 16:47:07;;;;;;;12.20;7.13;;;;;;;-2.35;100.00;95016.78;10357902;28;20132;-78
2022/01/11 16:52:08;;;;;;;14.40;6.47;;;;;;;-2.14;100.00;95010.72;10386463;28;20021;-77
2022/01/11 16:57:10;;;;;;;12.68;6.82;;;;;;;-2.38;100.00;95017.16;10385935;28;20521;-74
2022/01/11 17:02:10;;;;;;;12.15;7.25;;;;;;;-2.29;100.00;95018.69;10383898;28;20052;-73
2022/01/11 17:07:11;;;;;;;13.27;7.63;;;;;;;-2.50;100.00;95019.44;10384320;28;20071;-74
2022/01/11 17:12:13;;;;;;;10.48;6.88;;;;;;;-2.72;100.00;95026.47;10360768;28;20395;-74
2022/01/11 17:17:13;;;;;;;10.70;8.23;;;;;;;-2.91;100.00;95025.22;10352895;28;20419;-74
2022/01/11 17:22:14;;;;;;;14.50;7.93;;;;;;;-3.14;100.00;95033.16;10372755;28;20034;-75
2022/01/11 17:27:17;;;;;;;13.80;7.95;;;;;;;-3.13;100.00;95032.19;10383504;28;20057;-74
2022/01/11 17:32:19;;;;;;;17.05;8.80;;;;;;;-3.17;100.00;95038.78;10359037;28;20116;-75
2022/01/11 17:37:22;;;;;;;15.85;6.07;;;;;;;-3.13;100.00;95029.56;10378914;28;20040;-72
2022/01/11 17:42:23;;;;;;;18.45;6.65;;;;;;;-3.13;100.00;95040.06;10349897;28;20579;-74
2022/01/11 17:47:23;;;;;;;13.68;6.65;;;;;;;-3.12;100.00;95041.72;10341231;28;20054;-80
2022/01/11 17:52:24;;;;;;;11.10;6.80;;;;;;;-3.10;100.00;95047.59;10342773;28;20021;-77
2022/01/11 17:57:24;;;;;;;12.75;7.45;;;;;;;-3.08;100.00;95053.50;10392844;28;20029;-78
2022/01/11 18:02:25;;;;;;;14.60;7.35;;;;;;;-3.00;100.00;95056.03;10366968;28;20083;-74
2022/01/11 18:07:26;;;;;;;16.60;9.13;;;;;;;-2.94;100.00;95050.06;10401698;28;20071;-79
2022/01/11 18:12:27;;;;;;;13.57;8.07;;;;;;;-2.89;100.00;95056.59;10367309;28;20030;-73
2022/01/11 18:17:29;;;;;;;11.85;7.07;;;;;;;-2.85;100.00;95056.03;10358072;28;20033;-77
2022/01/11 18:22:31;;;;;;;14.77;7.90;;;;;;;-2.69;100.00;95060.31;10358572;28;20030;-77
2022/01/11 18:27:32;;;;;;;13.77;7.63;;;;;;;-2.66;100.00;95067.81;10341544;28;20475;-75
2022/01/11 18:32:34;;;;;;;9.90;6.25;;;;;;;-2.58;100.00;95065.09;10370842;28;20022;-75
2022/01/11 18:37:34;;;;;;;17.45;10.07;;;;;;;-2.55;100.00;95068.34;10358218;28;20471;-73
2022/01/11 18:42:36;;;;;;;15.43;7.95;;;;;;;-2.63;100.00;95083.25;10370790;28;20065;-74
2022/01/11 18:47:37;;;;;;;11.93;7.78;;;;;;;-2.54;100.00;95085.78;10366340;28;20054;-75
2022/01/11 18:52:38;;;;;;;16.27;9.45;;;;;;;-2.58;100.00;95091.41;10349688;28;20030;-77
2022/01/11 18:57:40;;;;;;;16.52;10.35;;;;;;;-2.60;100.00;95103.13;10349625;28;20025;-78
2022/01/11 19:02:40;;;;;;;14.45;11.05;;;;;;;-2.65;100.00;95101.03;10365739;28;20022;-73
2022/01/11 19:07:44;;;;;;;22.00;11.18;;;;;;;-2.59;100.00;95110.00;10367053;28;20713;-77
2022/01/11 19:12:45;;;;;;;19.35;10.93;;;;;;;-2.62;100.00;95116.44;10385583;28;20515;-77
2022/01/11 19:17:45;;;;;;;17.05;10.35;;;;;;;-2.58;100.00;95115.09;10407411;28;20030;-73
2022/01/11 19:22:45;;;;;;;17.40;12.75;;;;;;;-2.51;100.00;95124.88;10405766;28;20025;-74
2022/01/11 19:27:47;;;;;;;21.45;11.85;;;;;;;-2.49;100.00;95120.25;10406872;28;20037;-78
2022/01/11 19:32:48;;;;;;;17.17;9.65;;;;;;;-2.39;100.00;95130.50;10351421;28;20022;-74
2022/01/11 19:37:51;;;;;;;19.00;10.57;;;;;;;-2.41;100.00;95138.59;10377027;28;20044;-74
2022/01/11 19:42:51;;;;;;;20.20;10.43;;;;;;;-2.47;100.00;95134.03;10405664;28;20385;-80
2022/01/11 19:47:55;;;;;;;18.25;9.13;;;;;;;-2.39;100.00;95136.59;10388350;28;20050;-74
2022/01/11 19:52:56;;;;;;;20.48;9.85;;;;;;;-2.15;100.00;95142.56;10374911;28;20025;-76
2022/01/11 19:57:57;;;;;;;21.30;9.93;;;;;;;-1.91;100.00;95136.97;10372855;28;20048;-77
2022/01/11 20:03:01;;;;;;;14.10;7.88;;;;;;;-1.89;100.00;95134.16;10349533;28;20067;-73
2022/01/11 20:08:02;;;;;;;12.77;7.68;;;;;;;-1.84;100.00;95138.84;10401580;28;20029;-73
2022/01/11 20:13:02;;;;;;;15.10;8.57;;;;;;;-1.89;100.00;95144.69;10401569;28;20217;-77
2022/01/11 20:18:04;;;;;;;15.05;7.53;;;;;;;-1.88;100.00;95143.69;10357480;28;20040;-77
2022/01/11 20:28:25;;;;;;;9.98;5.07;;;;;;;-1.86;100.00;95141.69;10361680;28;20412;-78
2022/01/11 20:33:25;;;;;;;12.25;6.22;;;;;;;-2.02;100.00;95152.44;10344472;28;20033;-73
2022/01/11 20:38:27;;;;;;;10.88;5.55;;;;;;;-2.09;100.00;95162.91;10344517;28;20168;-74
2022/01/11 20:43:28;;;;;;;11.27;6.28;;;;;;;-2.28;100.00;95170.34;10366674;28;20030;-77
2022/01/11 20:48:29;;;;;;;13.05;7.07;;;;;;;-2.27;100.00;95174.63;10343684;28;20527;-74
2022/01/11 20:53:29;;;;;;;13.68;6.50;;;;;;;-2.57;100.00;95181.69;10353982;28;20033;-71
2022/01/11 20:58:33;;;;;;;16.70;6.72;;;;;;;-2.75;100.00;95190.75;10384794;28;20026;-72
2022/01/11 21:03:34;;;;;;;9.70;6.13;;;;;;;-2.81;100.00;95195.91;10384486;28;20025;-75
2022/01/11 21:08:35;;;;;;;10.85;6.28;;;;;;;-2.90;100.00;95203.06;10357718;28;20037;-72
2022/01/11 21:13:36;;;;;;;14.23;5.82;;;;;;;-2.91;100.00;95209.28;10360749;28;20045;-73
2022/01/11 21:23:56;;;;;;;15.82;7.07;;;;;;;-2.84;100.00;95215.47;10414591;28;20136;-76
2022/01/11 21:28:57;;;;;;;12.65;6.05;;;;;;;-2.83;100.00;95216.28;10385370;28;20531;-77
2022/01/11 21:34:00;;;;;;;20.10;11.23;;;;;;;-2.60;100.00;95221.50;10385523;28;20137;-74
2022/01/11 21:39:01;;;;;;;21.35;7.53;;;;;;;-2.43;100.00;95220.38;10383646;28;20033;-71
2022/01/11 21:44:04;;;;;;;16.65;7.68;;;;;;;-2.38;100.00;95222.44;10384881;28;20048;-72
2022/01/11 21:49:07;;;;;;;19.67;8.40;;;;;;;-2.55;100.00;95211.28;10382918;28;20041;-72
2022/01/11 21:54:07;;;;;;;14.80;8.07;;;;;;;-2.44;100.00;95231.88;10367108;28;20100;-70
2022/01/11 21:59:09;;;;;;;12.10;7.05;;;;;;;-2.26;100.00;95235.97;10383173;28;20128;-79
2022/01/11 22:04:09;;;;;;;19.05;6.78;;;;;;;-2.27;100.00;95229.09;10400890;28;20137;-75
2022/01/11 22:09:10;;;;;;;11.90;6.45;;;;;;;-2.26;100.00;95247.34;10382990;28;20519;-71
2022/01/11 22:19:40;;;;;;;12.52;5.78;;;;;;;-2.06;100.00;95225.72;10363721;28;20037;-77
2022/01/11 22:24:41;;;;;;;14.75;6.30;;;;;;;-2.08;100.00;95235.63;10382678;28;20033;-74
2022/01/11 22:29:41;;;;;;;19.15;7.50;;;;;;;-2.06;100.00;95241.53;10383210;28;20124;-74
2022/01/11 22:34:43;;;;;;;14.65;7.15;;;;;;;-2.04;100.00;95246.63;10382575;28;20498;-73
2022/01/11 22:39:45;;;;;;;14.52;5.45;;;;;;;-2.11;100.00;95243.88;10381842;28;20029;-72
2022/01/11 22:44:46;;;;;;;11.82;5.70;;;;;;;-2.13;100.00;95244.06;10382070;28;20522;-72
2022/01/11 22:49:47;;;;;;;10.65;6.30;;;;;;;-2.11;100.00;95238.63;10381324;28;20168;-71
2022/01/11 22:54:49;;;;;;;12.80;7.88;;;;;;;-2.30;100.00;95243.44;10382735;28;20025;-71
2022/01/11 22:59:50;;;;;;;16.55;7.15;;;;;;;-2.63;100.00;95246.38;10382113;28;20045;-72
2022/01/11 23:04:51;;;;;;;12.88;7.10;;;;;;;-2.78;100.00;95235.81;10399803;28;20389;-73
2022/01/11 23:09:53;;;;;;;14.27;7.90;;;;;;;-2.78;100.00;95259.50;10381682;28;20029;-72
2022/01/11 23:14:57;;;;;;;15.70;7.90;;;;;;;-2.83;100.00;95261.00;10365377;28;20499;-76
2022/01/11 23:19:58;;;;;;;11.80;7.38;;;;;;;-2.91;100.00;95256.63;10366144;28;20029;-71
2022/01/11 23:24:58;;;;;;;18.17;9.57;;;;;;;-2.97;100.00;95263.41;10400767;28;20454;-74
2022/01/11 23:29:59;;;;;;;13.88;7.43;;;;;;;-2.92;100.00;95270.78;10388804;28;20027;-73